Airfield :
LOGIN :

Register | Disclaimer

   EN    FR    IT 

 










Legend :    VFR   Marginal VFR   IFR   Intensive IFR   Very Intensive IFR
Visi :
Ceiling :
>= 8 km
>= 3000ft
5 to 8 km
1000 to 3000 ft
1500m to 5 km
500 to 1000 ft
800 to 1500m
200 to 500 ft
< 800m
< 200 ft
Symbols :   Thunderstorms  Fog  Heavy snow  Heavy precipitations  Wind > 20 kt
SIGMETs :     Misc.  Thunderstorms  Icing  Turbulence  Mountain Waves  Volcanic Ashes







- Airport Elevation : 171 ft
- IATA code : EGC
- Download approach charts


LFBE - Bergerac

CURRENT METAR :
  • 151530Z AUTO 29011KT 9999 BKN023 OVC028 08/05 Q1006 TEMPO 28015G25KT 4000 SHRA SCT015 BKN020TCU

EXPIRED METARs :
  • 151500Z AUTO 29013KT 9999 BKN022 OVC027 08/05 Q1005 TEMPO 24015G25KT 2500 -TSRA BKN015TCU SCT020CB
  • 151430Z AUTO 28015KT 9999 BKN021 OVC027 08/06 Q1004 TEMPO 24015G25KT 2500 -TSRA BKN015TCU SCT020CB
  • 151400Z AUTO 25015KT 9999 BKN027 OVC033 09/06 Q1004 TEMPO 24015G25KT 2500 -TSRA BKN015TCU SCT020CB
  • 151330Z AUTO 24015KT 200V280 9999 -RA SCT021/// BKN028/// OVC037/// ///CB 08/06 Q1004 TEMPO 24015G25KT 2500 -TSRA
  • 151300Z AUTO 22009KT 190V260 9999 -RA SCT028/// BKN035/// BKN056/// ///TCU 08/06 Q1005 TEMPO 24015G25KT 2500 -TSRA BKN015TCU SCT020CB

TAF TAF LFBE
Valid from the 15 at 12:00 until the 16 at 12:00 UTC


151100Z 1512/1612 24005KT 9999 SCT030
TEMPO 1512/1519 28015G25KT 4000 SHRA SCT015 BKN020TCU
PROB30
TEMPO 1512/1517 24015G25KT 2500 -TSRA BKN015TCU SCT020CB
BECMG 1519/1521 CAVOK
PROB40
TEMPO 1602/1608 2000 MIFG
BECMG 1608/1610 BKN012
No reported NOTAMs for that airfield.



MET'MAP, your aeronautical weather chart ! - Copyright ORBIFLY December 2007 - Disclaimer

ORBIFLY MET'MAP TEAM :

Programming & Development : Alexandra Zaïnal
Concept & Development : Baudouin d'Aumeries
Co-Development & Prog : Marc-Olivier Méhu
Technical & hardware support : Manuel Goepfert

Contact : metmap@orbifly.com




SOURCES & CREDITS :

   NOAA